Azwell, Washington
Current Conditions -  °F | °C
As of 11:53 PM on Friday 24 Oct 2014 (Local Time) from KOMK Reporting Station
Light Rain Light Rain  
Wind Chill: 45°   Ceiling: 4200
Heat Index: 45°   Visibility: 7mi
Dew Point: 43°   Wind: 3mph
Humidity: 93%   Direction: 320°NW
Pressure: 29.98"   Gusts: NA
Location:  48.0966°N, 119.955°W
Report Text: KOMK 250653Z AUTO 32003KT 7SM -RA OVC042 07/06 A2998 RMK AO2 SLP156 P0004 T00720061
Loading
Personal Weather Stations






























Interactive Weather Map
Tropical Storm Tracking
New forecast layout! Learn more

10-Day Weather Forecast

Advertisements
Track Severe Weather on mobile